Time;durP1;ratioP1;P1;durP2;ratioP2;P2;SDS_P1;SDS_P2;PMS_P1;PMS_P2;Temp;Humidity;BMP_temperature;BMP_pressure;BME280_temperature;BME280_humidity;BME280_pressure;Samples;Min_cycle;Max_cycle;Signal;HPM_P1;HPM_P2
2022/07/26 00:02:59;;;;;;;4.47;1.15;;;19.40;99.90;;;;;;20623697;28;20744;-39
2022/07/26 00:13:00;;;;;;;2.90;0.85;;;19.40;99.90;;;;;;20629292;28;20494;-39
2022/07/26 00:23:01;;;;;;;2.50;0.98;;;19.40;99.90;;;;;;20626948;28;20397;-38
2022/07/26 00:33:03;;;;;;;4.78;0.90;;;19.50;99.90;;;;;;20615130;28;20759;-38
2022/07/26 00:43:04;;;;;;;2.80;1.83;;;19.60;99.90;;;;;;20628589;28;20232;-39
2022/07/26 00:53:05;;;;;;;1.63;0.68;;;19.50;99.90;;;;;;20629892;28;20152;-39
2022/07/26 01:03:06;;;;;;;1.52;0.60;;;19.50;99.90;;;;;;20629128;28;20061;-39
2022/07/26 01:13:07;;;;;;;1.85;0.50;;;19.50;99.90;;;;;;20628930;28;20034;-39
2022/07/26 01:23:08;;;;;;;3.90;0.35;;;19.40;99.90;;;;;;20632457;28;20098;-39
2022/07/26 01:33:10;;;;;;;1.20;0.50;;;19.30;99.90;;;;;;20629085;28;20149;-38
2022/07/26 01:43:11;;;;;;;1.25;0.55;;;19.20;99.90;;;;;;20639503;28;20066;-39
2022/07/26 01:53:12;;;;;;;1.17;0.52;;;19.20;99.90;;;;;;20639186;28;20542;-39
2022/07/26 02:03:13;;;;;;;1.73;0.77;;;19.20;99.90;;;;;;20637900;28;20548;-38
2022/07/26 02:13:14;;;;;;;1.45;0.40;;;19.10;99.90;;;;;;20648731;28;20371;-39
2022/07/26 02:23:15;;;;;;;2.05;1.50;;;19.00;99.90;;;;;;20644379;28;20104;-39
2022/07/26 02:33:17;;;;;;;2.88;0.43;;;18.90;99.90;;;;;;20657027;28;20034;-38
2022/07/26 02:43:18;;;;;;;1.02;0.38;;;18.70;99.90;;;;;;20641877;28;20061;-39
2022/07/26 02:53:19;;;;;;;2.00;0.40;;;18.60;99.90;;;;;;20653122;28;20120;-38
2022/07/26 03:03:21;;;;;;;0.40;0.20;;;18.50;99.90;;;;;;20665728;28;20034;-38
2022/07/26 03:13:21;;;;;;;5.65;0.73;;;18.40;99.90;;;;;;20668303;28;20347;-38
2022/07/26 03:23:23;;;;;;;2.13;0.45;;;18.40;99.90;;;;;;20678250;28;20050;-39
2022/07/26 03:33:24;;;;;;;0.95;0.40;;;18.20;99.90;;;;;;20690993;28;20832;-39
2022/07/26 03:43:25;;;;;;;20.48;0.75;;;18.10;99.90;;;;;;20697113;28;20359;-39
2022/07/26 03:53:26;;;;;;;4.50;0.60;;;17.80;99.90;;;;;;20708799;28;20049;-39
2022/07/26 04:03:27;;;;;;;1.38;0.50;;;17.70;99.90;;;;;;20707789;28;20061;-39
2022/07/26 04:13:28;;;;;;;1.33;0.57;;;17.50;99.90;;;;;;20726135;28;20137;-40
2022/07/26 04:23:29;;;;;;;1.70;0.40;;;17.40;99.90;;;;;;20710016;28;20038;-45
2022/07/26 04:33:31;;;;;;;1.48;0.50;;;17.40;99.90;;;;;;20723184;28;20066;-38
2022/07/26 04:43:32;;;;;;;1.05;0.47;;;17.50;99.90;;;;;;20733889;28;20131;-38
2022/07/26 04:53:33;;;;;;;1.02;0.50;;;17.60;99.90;;;;;;20722780;28;20101;-38
2022/07/26 05:03:35;;;;;;;1.58;0.45;;;17.60;99.90;;;;;;20722970;28;20034;-40
2022/07/26 05:13:36;;;;;;;2.63;1.02;;;17.50;99.90;;;;;;20714486;28;20069;-39
2022/07/26 05:23:52;;;;;;;0.85;0.30;;;17.40;99.90;;;;;;20624289;28;21141;-39
2022/07/26 05:33:54;;;;;;;1.20;0.28;;;16.90;99.90;;;;;;20653131;28;20050;-39
2022/07/26 05:43:55;;;;;;;2.25;0.60;;;16.70;99.90;;;;;;20660107;28;20089;-39
2022/07/26 05:53:56;;;;;;;1.38;0.70;;;16.80;99.90;;;;;;20676610;28;20046;-39
2022/07/26 06:03:58;;;;;;;2.38;0.50;;;16.80;99.90;;;;;;20658973;28;20525;-39
2022/07/26 06:13:59;;;;;;;2.97;0.40;;;16.80;99.90;;;;;;20655045;28;20336;-38
2022/07/26 06:24:00;;;;;;;1.73;0.50;;;16.80;99.90;;;;;;20652040;28;20038;-39
2022/07/26 06:34:01;;;;;;;2.53;1.23;;;16.80;99.90;;;;;;20652889;28;20045;-39
2022/07/26 06:44:02;;;;;;;1.73;0.50;;;16.90;99.90;;;;;;20701298;28;20069;-39
2022/07/26 06:54:04;;;;;;;1.92;0.40;;;17.00;99.90;;;;;;20713390;28;20050;-39
2022/07/26 07:04:05;;;;;;;0.60;0.20;;;17.10;99.90;;;;;;20663633;28;20030;-39
2022/07/26 07:14:06;;;;;;;0.70;0.20;;;16.70;99.90;;;;;;20657673;28;20057;-39
2022/07/26 07:24:07;;;;;;;1.92;0.50;;;16.50;99.90;;;;;;20660571;28;20038;-49
2022/07/26 07:34:08;;;;;;;1.63;0.30;;;16.60;99.90;;;;;;20659714;28;20038;-39
2022/07/26 07:44:09;;;;;;;1.13;0.35;;;16.90;99.90;;;;;;20690203;28;20038;-39
2022/07/26 07:54:10;;;;;;;0.65;0.20;;;17.20;99.90;;;;;;20702772;28;20089;-39
2022/07/26 08:04:11;;;;;;;0.70;0.20;;;17.60;99.90;;;;;;20720676;28;20035;-39
2022/07/26 08:14:12;;;;;;;0.65;0.10;;;17.60;99.90;;;;;;20716424;28;20085;-39
2022/07/26 08:24:13;;;;;;;0.40;0.10;;;17.70;99.90;;;;;;20713667;28;20090;-39
2022/07/26 08:34:14;;;;;;;0.73;0.10;;;17.90;99.90;;;;;;20690815;28;20516;-39
2022/07/26 08:44:15;;;;;;;1.27;0.13;;;18.00;99.90;;;;;;20722946;28;20445;-39
2022/07/26 08:54:16;;;;;;;0.75;0.15;;;18.00;99.90;;;;;;20700058;28;20038;-40
2022/07/26 09:04:25;;;;;;;0.75;0.20;;;18.20;99.90;;;;;;20698498;28;20049;-40
2022/07/26 09:14:36;;;;;;;1.02;0.20;;;18.50;99.90;;;;;;20705072;28;20719;-39
2022/07/26 09:24:48;;;;;;;0.10;0.00;;;18.80;99.90;;;;;;20703609;28;20034;-39
2022/07/26 09:35:08;;;;;;;1.08;0.20;;;18.60;99.90;;;;;;20704331;28;20041;-40
2022/07/26 09:45:18;;;;;;;0.85;0.20;;;18.00;99.90;;;;;;20702731;28;20065;-39
2022/07/26 09:55:19;;;;;;;1.60;0.32;;;18.00;99.90;;;;;;20700262;28;20062;-39
2022/07/26 10:05:20;;;;;;;0.50;0.10;;;18.10;99.90;;;;;;20673450;28;20081;-39
2022/07/26 10:15:40;;;;;;;1.88;0.20;;;18.30;99.90;;;;;;20685246;28;20560;-39
2022/07/26 10:25:46;;;;;;;1.00;0.20;;;18.40;99.90;;;;;;20724335;28;20112;-40
2022/07/26 10:35:47;;;;;;;1.25;0.40;;;18.30;99.90;;;;;;20712697;28;20497;-39
2022/07/26 10:46:29;;;;;;;4.47;0.20;;;18.20;99.90;;;;;;20717342;28;20042;-39
2022/07/26 10:56:31;;;;;;;0.50;0.10;;;18.40;99.90;;;;;;20634933;28;20894;-39
2022/07/26 11:06:32;;;;;;;0.52;0.10;;;19.30;99.90;;;;;;20670439;28;20113;-40
2022/07/26 11:16:41;;;;;;;0.80;0.38;;;19.30;99.90;;;;;;20667975;28;20433;-39
2022/07/26 11:26:44;;;;;;;0.38;0.17;;;19.40;99.90;;;;;;20659077;28;20038;-40
2022/07/26 11:36:45;;;;;;;0.17;0.10;;;19.50;99.90;;;;;;20656280;28;20038;-39
2022/07/26 11:46:48;;;;;;;0.57;0.20;;;20.20;99.90;;;;;;20637349;28;20042;-40
2022/07/26 11:56:54;;;;;;;0.95;0.20;;;20.00;99.90;;;;;;20628989;28;20100;-39
2022/07/26 12:06:57;;;;;;;1.20;0.40;;;19.90;99.90;;;;;;20633092;28;20276;-39
2022/07/26 12:17:15;;;;;;;0.85;0.32;;;19.90;99.90;;;;;;20652567;28;20038;-39
2022/07/26 12:27:19;;;;;;;3.70;0.47;;;19.70;99.90;;;;;;20644761;28;20034;-39
2022/07/26 12:37:20;;;;;;;1.35;0.50;;;20.00;99.90;;;;;;20652679;28;20042;-39
2022/07/26 12:47:21;;;;;;;2.72;0.40;;;20.50;99.90;;;;;;20651588;28;20827;-39
2022/07/26 12:57:22;;;;;;;2.35;0.95;;;20.50;99.90;;;;;;20639331;28;20046;-39
2022/07/26 13:07:24;;;;;;;1.65;0.50;;;20.40;99.90;;;;;;20640393;28;20034;-39
2022/07/26 13:17:25;;;;;;;1.42;0.40;;;20.10;99.90;;;;;;20656077;28;20053;-40
2022/07/26 13:27:26;;;;;;;0.93;0.30;;;20.10;99.90;;;;;;20638860;28;20038;-40
2022/07/26 13:37:27;;;;;;;1.80;1.00;;;20.10;99.90;;;;;;20638549;28;20053;-39
2022/07/26 13:47:28;;;;;;;0.95;0.30;;;20.10;99.90;;;;;;20639301;28;20232;-40
2022/07/26 13:57:29;;;;;;;1.50;0.40;;;20.00;99.90;;;;;;20641798;28;20049;-40
2022/07/26 14:07:30;;;;;;;0.73;0.20;;;20.20;99.90;;;;;;20643590;28;20034;-40
2022/07/26 14:17:31;;;;;;;1.00;0.30;;;20.00;99.90;;;;;;20640678;28;20041;-39
2022/07/26 14:27:32;;;;;;;0.52;0.30;;;20.20;99.90;;;;;;20641287;28;20038;-39
2022/07/26 14:37:33;;;;;;;3.05;0.28;;;20.30;99.90;;;;;;20637018;28;20105;-39
2022/07/26 14:47:34;;;;;;;0.80;0.20;;;20.00;99.90;;;;;;20637002;28;20113;-39
2022/07/26 14:57:36;;;;;;;0.70;0.30;;;20.00;99.90;;;;;;20635343;28;20109;-39
2022/07/26 15:07:38;;;;;;;0.73;0.52;;;20.00;99.90;;;;;;20652733;28;20038;-39
2022/07/26 15:17:40;;;;;;;0.85;0.20;;;20.00;99.90;;;;;;20641616;28;20174;-38
2022/07/26 15:27:41;;;;;;;0.70;0.10;;;20.50;99.90;;;;;;20638611;28;20084;-39
2022/07/26 15:37:42;;;;;;;1.17;0.32;;;20.50;99.90;;;;;;20593537;28;20137;-39
2022/07/26 15:47:44;;;;;;;0.68;0.30;;;20.30;99.90;;;;;;20539452;28;20137;-38
2022/07/26 15:57:46;;;;;;;2.15;0.40;;;20.10;99.90;;;;;;20566344;28;20046;-38
2022/07/26 16:07:47;;;;;;;0.77;0.20;;;20.00;99.90;;;;;;20564197;28;20046;-40
2022/07/26 16:17:48;;;;;;;1.10;0.40;;;20.00;99.90;;;;;;20604303;28;20050;-38
2022/07/26 16:27:51;;;;;;;0.88;0.30;;;19.70;99.90;;;;;;20625603;28;20450;-39
2022/07/26 16:37:52;;;;;;;1.15;0.60;;;19.60;99.90;;;;;;20637081;28;20553;-38
2022/07/26 16:47:53;;;;;;;0.45;0.20;;;19.40;99.90;;;;;;20685159;28;22222;-40
2022/07/26 16:57:58;;;;;;;0.68;0.30;;;19.10;99.90;;;;;;20695137;28;20073;-40
2022/07/26 17:07:59;;;;;;;1.52;0.35;;;18.90;99.90;;;;;;20696752;28;20109;-39
2022/07/26 17:18:00;;;;;;;2.40;0.30;;;18.80;99.90;;;;;;20694750;28;20045;-39
2022/07/26 17:28:01;;;;;;;0.77;0.20;;;18.70;99.90;;;;;;20700930;28;20037;-39
2022/07/26 17:38:03;;;;;;;0.70;0.30;;;18.80;99.90;;;;;;20714075;28;20045;-39
2022/07/26 17:48:04;;;;;;;0.22;0.10;;;18.70;99.90;;;;;;20722906;28;20439;-39
2022/07/26 17:58:06;;;;;;;3.20;0.43;;;18.50;99.90;;;;;;20718654;28;20046;-39
2022/07/26 18:08:08;;;;;;;1.13;0.30;;;18.40;99.90;;;;;;20718944;28;20101;-39
2022/07/26 18:18:09;;;;;;;0.70;0.20;;;18.40;99.90;;;;;;20718814;28;20507;-39
2022/07/26 18:28:10;;;;;;;1.25;0.10;;;18.40;99.90;;;;;;20718382;28;20105;-39
2022/07/26 18:38:11;;;;;;;2.05;0.17;;;18.20;99.90;;;;;;20691159;28;20049;-38
2022/07/26 18:48:12;;;;;;;0.40;0.20;;;18.00;99.90;;;;;;20721713;28;20093;-38
2022/07/26 18:58:13;;;;;;;0.40;0.40;;;17.80;99.90;;;;;;20715352;28;20630;-38
2022/07/26 19:08:14;;;;;;;1.55;0.85;;;17.70;99.90;;;;;;20705669;28;20037;-38
2022/07/26 19:18:15;;;;;;;1.05;0.20;;;17.50;99.90;;;;;;20712001;28;20046;-37
2022/07/26 19:28:17;;;;;;;0.82;0.22;;;17.30;99.90;;;;;;20672614;28;20101;-38
2022/07/26 19:38:18;;;;;;;1.20;0.20;;;17.20;99.90;;;;;;20681962;28;20046;-38
2022/07/26 19:48:19;;;;;;;0.52;0.10;;;17.00;99.90;;;;;;20672804;28;20117;-38
2022/07/26 19:58:20;;;;;;;0.80;0.10;;;16.90;99.90;;;;;;20668007;28;20049;-38
2022/07/26 20:08:21;;;;;;;0.50;0.10;;;16.80;99.90;;;;;;20668977;28;20510;-38
2022/07/26 20:18:23;;;;;;;0.88;0.10;;;16.80;99.90;;;;;;20658819;28;21641;-38
2022/07/26 20:28:24;;;;;;;0.57;0.17;;;16.80;99.90;;;;;;20648880;28;20663;-38
2022/07/26 20:38:25;;;;;;;1.25;0.10;;;16.60;99.90;;;;;;20665673;28;20541;-38
2022/07/26 20:48:26;;;;;;;0.68;0.20;;;16.50;99.90;;;;;;20678528;28;20038;-38
2022/07/26 20:58:27;;;;;;;0.73;0.10;;;16.50;99.90;;;;;;20686114;28;20049;-39
2022/07/26 21:08:28;;;;;;;0.73;0.30;;;16.40;99.90;;;;;;20677253;28;20653;-38
2022/07/26 21:18:31;;;;;;;1.10;0.20;;;16.40;99.90;;;;;;20673120;28;20043;-38
2022/07/26 21:28:33;;;;;;;0.70;0.10;;;16.20;99.90;;;;;;20667678;28;20093;-39
2022/07/26 21:38:34;;;;;;;0.65;0.30;;;16.00;99.90;;;;;;20671480;28;20053;-38
2022/07/26 21:48:35;;;;;;;0.38;0.20;;;16.00;99.90;;;;;;20677752;28;20178;-43
2022/07/26 21:58:37;;;;;;;0.68;0.20;;;15.90;99.90;;;;;;20663999;28;20074;-38
2022/07/26 22:08:38;;;;;;;0.35;0.15;;;15.90;99.90;;;;;;20667896;28;20454;-38
2022/07/26 22:18:39;;;;;;;1.20;0.50;;;15.80;99.90;;;;;;20656480;28;20046;-38
2022/07/26 22:28:40;;;;;;;0.93;0.10;;;15.60;99.90;;;;;;20654991;28;20050;-38
2022/07/26 22:38:43;;;;;;;0.52;0.15;;;15.30;99.90;;;;;;20655326;28;20054;-38
2022/07/26 22:48:44;;;;;;;0.73;0.40;;;15.00;99.90;;;;;;20661940;28;20098;-38
2022/07/26 22:58:45;;;;;;;1.23;0.28;;;14.80;99.90;;;;;;20635029;28;20042;-38
2022/07/26 23:08:46;;;;;;;1.23;0.20;;;14.70;99.90;;;;;;20627556;28;20038;-38
2022/07/26 23:18:47;;;;;;;1.55;0.20;;;14.60;99.90;;;;;;20625362;28;20062;-38
2022/07/26 23:28:48;;;;;;;0.50;0.13;;;14.50;99.90;;;;;;20624588;28;20049;-38
2022/07/26 23:38:49;;;;;;;0.57;0.10;;;14.40;99.90;;;;;;20613570;28;20505;-38
2022/07/26 23:48:51;;;;;;;0.65;0.20;;;14.30;99.90;;;;;;20625410;28;20073;-38
2022/07/26 23:58:52;;;;;;;5.38;0.55;;;14.10;99.90;;;;;;20628792;28;20148;-38
